Time;durP1;ratioP1;P1;durP2;ratioP2;P2;SDS_P1;SDS_P2;PMS_P1;PMS_P2;Temp;Humidity;BMP_temperature;BMP_pressure;BME280_temperature;BME280_humidity;BME280_pressure;Samples;Min_cycle;Max_cycle;Signal;HPM_P1;HPM_P2
2023/07/13 00:02:14;;;;;;;0.80;0.60;;;;;;;22.00;87.37;97458.59;1225183;75;2918796;-66
2023/07/13 00:04:46;;;;;;;0.70;0.45;;;;;;;22.16;84.91;97448.94;1224246;75;2922826;-65
2023/07/13 00:07:19;;;;;;;0.40;0.25;;;;;;;22.15;85.77;97446.69;1224855;75;2921582;-66
2023/07/13 00:09:55;;;;;;;0.40;0.30;;;;;;;22.18;84.87;97440.75;1222183;75;2925362;-63
2023/07/13 00:12:32;;;;;;;0.40;0.40;;;;;;;22.21;84.82;97438.91;1225205;75;2921724;-65
2023/07/13 00:15:08;;;;;;;0.50;0.50;;;;;;;22.13;85.21;97438.91;1225245;75;2916458;-65
2023/07/13 00:17:40;;;;;;;0.40;0.30;;;;;;;21.91;87.93;97432.03;1224600;75;2911322;-67
2023/07/13 00:20:14;;;;;;;1.20;0.50;;;;;;;21.72;90.40;97434.47;1224906;75;2916907;-67
2023/07/13 00:22:47;;;;;;;2.55;0.70;;;;;;;21.55;93.22;97430.22;1224514;75;2918517;-66
2023/07/13 00:25:24;;;;;;;1.35;0.60;;;;;;;21.91;88.58;97418.88;1224766;75;2918783;-64
2023/07/13 00:27:57;;;;;;;0.50;0.40;;;;;;;21.94;89.93;97411.44;1224762;75;2920635;-65
2023/07/13 00:30:30;;;;;;;0.30;0.30;;;;;;;22.00;88.92;97411.22;1224278;75;2919921;-64
2023/07/13 00:33:02;;;;;;;0.60;0.35;;;;;;;21.99;89.29;97424.41;1224672;75;2922348;-63
2023/07/13 00:35:35;;;;;;;0.50;0.30;;;;;;;21.89;89.86;97417.94;1225322;75;2919735;-66
2023/07/13 00:38:08;;;;;;;0.40;0.20;;;;;;;21.84;90.03;97393.78;1224971;75;2921860;-65
2023/07/13 00:40:43;;;;;;;0.75;0.40;;;;;;;21.67;92.40;97369.28;1224833;75;2922483;-64
2023/07/13 00:43:21;;;;;;;0.25;0.25;;;;;;;21.66;93.03;97362.22;1224942;75;2920827;-64
2023/07/13 00:46:18;;;;;;;1.60;0.30;;;;;;;21.57;93.89;97376.72;1224223;75;2930148;-63
2023/07/13 00:48:53;;;;;;;0.65;0.50;;;;;;;21.32;97.27;97388.41;1224530;75;2922134;-63
2023/07/13 00:51:37;;;;;;;1.85;0.75;;;;;;;21.46;96.04;97400.13;1224455;75;2930075;-65
2023/07/13 00:54:17;;;;;;;0.20;0.20;;;;;;;21.62;92.34;97382.13;1223976;75;2920067;-65
2023/07/13 00:56:56;;;;;;;1.05;0.40;;;;;;;21.52;92.75;97344.97;1225058;75;2924845;-64
2023/07/13 00:59:29;;;;;;;1.05;0.40;;;;;;;21.47;91.80;97335.50;1224820;75;2923254;-65
2023/07/13 01:02:02;;;;;;;1.00;0.50;;;;;;;21.57;90.03;97340.50;1224171;75;2924848;-64
2023/07/13 01:04:38;;;;;;;0.60;0.40;;;;;;;21.55;92.23;97331.97;1224850;75;2912724;-64
2023/07/13 01:07:11;;;;;;;0.40;0.40;;;;;;;21.34;96.55;97327.31;1223891;75;2920233;-65
2023/07/13 01:09:44;;;;;;;2.85;1.00;;;;;;;20.69;100.00;97336.00;1223610;75;2920389;-63
2023/07/13 01:12:20;;;;;;;1.65;1.00;;;;;;;21.05;94.97;97329.56;1224152;75;2929093;-67
2023/07/13 01:15:00;;;;;;;0.80;0.60;;;;;;;20.97;95.96;97342.69;1224514;75;2928305;-65
2023/07/13 01:17:34;;;;;;;1.00;0.80;;;;;;;21.20;95.82;97390.06;1223860;75;2917254;-65
2023/07/13 01:20:08;;;;;;;1.95;0.75;;;;;;;21.16;95.60;97401.53;1224097;75;2921561;-65
2023/07/13 01:22:44;;;;;;;1.50;0.90;;;;;;;21.11;96.77;97407.31;1224671;75;2920925;-64
2023/07/13 01:25:16;;;;;;;1.15;0.65;;;;;;;21.24;95.63;97435.72;1224074;75;2923181;-66
2023/07/13 01:27:49;;;;;;;1.25;0.60;;;;;;;21.36;94.24;97441.69;1223836;75;2925743;-63
2023/07/13 01:30:21;;;;;;;2.90;1.00;;;;;;;21.26;99.74;97435.91;1224704;83;2921176;-64
2023/07/13 01:32:54;;;;;;;1.65;0.70;;;;;;;21.25;100.00;97420.50;1224055;75;2927453;-64
2023/07/13 01:35:27;;;;;;;2.05;1.00;;;;;;;20.85;100.00;97448.03;1224436;75;2928878;-67
2023/07/13 01:38:02;;;;;;;1.00;0.70;;;;;;;20.99;100.00;97482.03;1223942;75;2927298;-67
2023/07/13 01:40:35;;;;;;;1.30;0.60;;;;;;;21.16;100.00;97482.28;1223857;75;2923109;-65
2023/07/13 01:43:08;;;;;;;1.55;0.90;;;;;;;20.83;100.00;97493.13;1223869;75;2923854;-64
2023/07/13 01:45:41;;;;;;;4.20;1.00;;;;;;;20.70;100.00;97515.50;1224010;75;2925629;-64
2023/07/13 01:48:14;;;;;;;3.00;1.25;;;;;;;20.89;100.00;97545.81;1223931;75;2938055;-64
2023/07/13 01:50:46;;;;;;;1.75;1.00;;;;;;;20.83;100.00;97589.78;1223676;75;2927426;-66
2023/07/13 01:53:21;;;;;;;2.30;1.30;;;;;;;20.18;100.00;97648.03;1224663;75;2919633;-65
2023/07/13 01:55:54;;;;;;;3.85;1.45;;;;;;;19.98;100.00;97722.47;1223540;75;2922616;-64
2023/07/13 01:58:27;;;;;;;2.90;1.60;;;;;;;19.01;100.00;97780.38;1223553;75;2921666;-66
2023/07/13 02:00:59;;;;;;;3.00;1.35;;;;;;;18.82;100.00;97827.59;1223899;75;2925981;-67
2023/07/13 02:03:32;;;;;;;3.75;1.65;;;;;;;18.78;100.00;97876.31;1223720;75;2930890;-67
2023/07/13 02:06:04;;;;;;;3.10;1.50;;;;;;;18.63;100.00;97880.25;1223493;75;2977147;-66
2023/07/13 02:08:40;;;;;;;5.45;1.75;;;;;;;18.41;100.00;97884.09;1224230;75;2919905;-64
2023/07/13 02:11:13;;;;;;;5.35;1.60;;;;;;;17.92;100.00;97880.66;1223937;75;2920331;-69
2023/07/13 02:13:46;;;;;;;4.50;1.80;;;;;;;17.83;100.00;97890.81;1222534;75;2929256;-67
2023/07/13 02:16:19;;;;;;;4.00;1.55;;;;;;;18.10;100.00;97891.03;1223878;75;2961572;-66
2023/07/13 02:18:52;;;;;;;3.40;1.55;;;;;;;18.51;100.00;97870.59;1224346;75;2924481;-65
2023/07/13 02:21:25;;;;;;;2.00;1.05;;;;;;;18.76;100.00;97865.75;1224443;75;2929262;-64
2023/07/13 02:24:00;;;;;;;4.30;1.55;;;;;;;18.71;100.00;97853.44;1224224;75;2920834;-66
2023/07/13 02:26:33;;;;;;;2.35;1.20;;;;;;;18.84;100.00;97827.81;1223945;75;2928823;-66
2023/07/13 02:29:05;;;;;;;3.85;1.50;;;;;;;18.80;100.00;97785.00;1225122;75;2858977;-65
2023/07/13 02:31:38;;;;;;;1.75;1.15;;;;;;;19.13;100.00;97753.91;1223955;75;2934221;-67
2023/07/13 02:34:11;;;;;;;1.25;0.90;;;;;;;19.18;100.00;97707.19;1224034;75;2925753;-65
2023/07/13 02:36:43;;;;;;;2.55;1.20;;;;;;;19.11;100.00;97672.50;1224181;75;2930597;-64
2023/07/13 02:39:18;;;;;;;2.20;1.10;;;;;;;19.06;100.00;97615.81;1224654;75;2930376;-67
2023/07/13 02:41:51;;;;;;;2.25;1.15;;;;;;;18.99;100.00;97574.09;1224382;75;2921183;-68
2023/07/13 02:44:24;;;;;;;2.90;1.25;;;;;;;18.98;100.00;97545.63;1224747;75;2921042;-68
2023/07/13 02:46:56;;;;;;;3.40;1.40;;;;;;;18.91;100.00;97527.59;1225177;75;2917871;-67
2023/07/13 02:49:29;;;;;;;2.15;1.10;;;;;;;18.85;100.00;97521.41;1225220;75;2924291;-66
2023/07/13 02:52:02;;;;;;;1.50;1.10;;;;;;;18.86;100.00;97489.63;1224248;75;2935461;-66
2023/07/13 02:54:37;;;;;;;2.50;1.20;;;;;;;18.88;100.00;97494.63;1224202;75;2920715;-68
2023/07/13 02:57:10;;;;;;;3.20;1.60;;;;;;;18.73;100.00;97523.63;1224288;75;2922434;-68
2023/07/13 02:59:43;;;;;;;2.75;1.40;;;;;;;18.82;100.00;97544.69;1224246;75;2925461;-67
2023/07/13 03:02:15;;;;;;;2.55;1.60;;;;;;;19.04;100.00;97571.22;1224837;75;2918468;-64
2023/07/13 03:04:48;;;;;;;2.25;1.00;;;;;;;18.97;100.00;97607.91;1224606;75;2921319;-66
2023/07/13 03:07:20;;;;;;;2.25;1.20;;;;;;;19.27;100.00;97663.09;1224139;75;2923747;-69
2023/07/13 03:09:59;;;;;;;3.00;1.30;;;;;;;19.10;100.00;97712.63;1224063;75;2921518;-64
2023/07/13 03:12:31;;;;;;;2.70;1.50;;;;;;;18.92;100.00;97734.34;1224460;75;2928402;-65
2023/07/13 03:15:04;;;;;;;4.95;1.75;;;;;;;18.49;100.00;97789.97;1224646;75;2918837;-65
2023/07/13 03:17:36;;;;;;;2.70;1.50;;;;;;;18.72;100.00;97765.44;1224478;75;2920231;-69
2023/07/13 03:20:11;;;;;;;1.90;1.35;;;;;;;18.74;100.00;97780.28;1224431;75;2924142;-67
2023/07/13 03:22:44;;;;;;;3.35;1.60;;;;;;;18.78;100.00;97743.19;1224205;75;2925636;-67
2023/07/13 03:25:20;;;;;;;2.80;1.65;;;;;;;18.59;100.00;97730.13;1223750;75;2921250;-68
2023/07/13 03:27:52;;;;;;;3.70;2.15;;;;;;;18.75;100.00;97728.31;1223977;75;2929720;-67
2023/07/13 03:30:25;;;;;;;4.60;2.25;;;;;;;18.79;100.00;97689.97;1224169;75;2921372;-68
2023/07/13 03:32:57;;;;;;;5.45;2.20;;;;;;;18.83;100.00;97634.16;1224213;75;2920005;-68
2023/07/13 03:35:30;;;;;;;3.25;1.70;;;;;;;19.01;100.00;97552.88;1223724;75;2920192;-65
2023/07/13 03:38:02;;;;;;;7.10;1.85;;;;;;;18.74;100.00;97452.28;1224251;75;2922832;-68
2023/07/13 03:40:37;;;;;;;4.35;2.05;;;;;;;19.11;100.00;97401.31;1224043;75;2920921;-64
2023/07/13 03:43:10;;;;;;;1.35;1.05;;;;;;;19.16;100.00;97333.09;1224153;75;2931601;-66
2023/07/13 03:45:43;;;;;;;1.05;0.90;;;;;;;19.13;100.00;97312.72;1224102;75;2922336;-66
2023/07/13 03:48:16;;;;;;;2.05;1.15;;;;;;;19.11;100.00;97295.88;1224139;75;2928824;-67
2023/07/13 03:50:50;;;;;;;2.85;1.30;;;;;;;19.28;100.00;97300.25;1224279;75;2921792;-69
2023/07/13 03:53:23;;;;;;;1.10;1.00;;;;;;;19.24;100.00;97342.22;1224327;75;2918718;-67
2023/07/13 03:55:58;;;;;;;1.05;0.80;;;;;;;19.27;100.00;97370.94;1223599;75;2924997;-69
2023/07/13 03:58:35;;;;;;;1.85;1.00;;;;;;;19.03;100.00;97397.72;1223763;75;2925499;-69
2023/07/13 04:01:09;;;;;;;2.90;1.55;;;;;;;18.97;100.00;97429.63;1224064;75;2920211;-68
2023/07/13 04:03:42;;;;;;;2.85;1.70;;;;;;;18.91;100.00;97460.28;1221951;75;2943858;-70
2023/07/13 04:06:22;;;;;;;3.05;1.40;;;;;;;18.96;100.00;97489.94;1223807;75;2931551;-69
2023/07/13 04:08:57;;;;;;;2.60;1.60;;;;;;;18.87;100.00;97490.38;1221295;75;3053267;-68
2023/07/13 04:11:36;;;;;;;3.50;1.65;;;;;;;19.00;100.00;97514.56;1224473;75;2928609;-70
2023/07/13 04:14:08;;;;;;;3.75;1.50;;;;;;;19.06;100.00;97532.59;1217006;75;3232753;-67
2023/07/13 04:16:41;;;;;;;3.40;1.60;;;;;;;18.96;100.00;97539.88;1224049;75;2928837;-69
2023/07/13 04:19:14;;;;;;;2.65;1.75;;;;;;;18.55;100.00;97540.41;1224253;75;2931676;-66
2023/07/13 04:21:46;;;;;;;3.25;2.20;;;;;;;18.78;100.00;97557.38;1223452;75;2949964;-68
2023/07/13 04:24:19;;;;;;;4.75;2.00;;;;;;;18.67;100.00;97570.16;1223303;75;2922799;-70
2023/07/13 04:26:54;;;;;;;4.30;2.10;;;;;;;18.63;100.00;97569.72;1223397;75;2930861;-67
2023/07/13 04:29:26;;;;;;;2.80;1.70;;;;;;;19.03;100.00;97578.06;1224275;75;2924110;-68
2023/07/13 04:31:59;;;;;;;2.65;1.55;;;;;;;18.85;100.00;97571.34;1223912;75;2925673;-68
2023/07/13 04:34:32;;;;;;;3.50;2.05;;;;;;;18.82;100.00;97574.44;1223556;75;2929099;-69
2023/07/13 04:37:04;;;;;;;3.85;2.05;;;;;;;18.75;100.00;97578.56;1222130;75;2921425;-67
2023/07/13 04:39:37;;;;;;;3.40;2.10;;;;;;;19.02;100.00;97581.34;1224085;75;2922997;-69
2023/07/13 04:42:12;;;;;;;1.70;1.20;;;;;;;18.93;100.00;97588.09;1223896;75;2928291;-67
2023/07/13 04:44:45;;;;;;;2.95;2.35;;;;;;;18.80;100.00;97591.59;1223367;75;2933372;-69
2023/07/13 04:47:17;;;;;;;4.45;2.30;;;;;;;18.96;100.00;97583.50;1223134;75;2930123;-67
2023/07/13 04:49:52;;;;;;;4.65;2.10;;;;;;;19.01;100.00;97577.84;1223661;75;2926706;-68
2023/07/13 04:52:24;;;;;;;4.75;2.70;;;;;;;18.84;100.00;97578.19;1224194;75;2926922;-70
2023/07/13 04:54:57;;;;;;;3.70;2.10;;;;;;;19.22;100.00;97582.69;1223496;75;2924316;-68
2023/07/13 04:57:32;;;;;;;3.25;1.90;;;;;;;19.21;100.00;97587.50;1223160;75;2950268;-66
2023/07/13 05:00:06;;;;;;;2.35;1.70;;;;;;;19.03;100.00;97583.59;1221062;75;2933928;-66
2023/07/13 05:02:41;;;;;;;4.25;2.05;;;;;;;19.20;100.00;97591.59;1223701;75;2928099;-68
2023/07/13 05:05:13;;;;;;;1.30;1.20;;;;;;;19.18;100.00;97585.81;1223801;75;2933354;-67
2023/07/13 05:07:46;;;;;;;3.55;1.70;;;;;;;19.27;100.00;97581.88;1224082;75;2921179;-69
2023/07/13 05:10:19;;;;;;;1.85;1.45;;;;;;;19.16;100.00;97578.03;1223018;75;2928138;-68
2023/07/13 05:12:54;;;;;;;2.40;1.50;;;;;;;19.22;100.00;97566.06;1223743;75;2921236;-65
2023/07/13 05:15:27;;;;;;;2.35;1.70;;;;;;;19.26;100.00;97572.78;1223986;75;2924034;-69
2023/07/13 05:17:59;;;;;;;1.30;1.20;;;;;;;19.59;100.00;97576.09;1224476;75;2923606;-67
2023/07/13 05:20:32;;;;;;;1.55;1.25;;;;;;;19.68;100.00;97566.59;1224530;75;2927619;-70
2023/07/13 05:23:05;;;;;;;2.65;1.60;;;;;;;19.57;100.00;97570.34;1223757;75;2919752;-70
2023/07/13 05:25:37;;;;;;;2.10;1.65;;;;;;;19.73;100.00;97568.50;1223326;75;2930852;-67
2023/07/13 05:28:13;;;;;;;2.25;1.45;;;;;;;19.50;100.00;97568.97;1223869;75;2924487;-68
2023/07/13 05:30:49;;;;;;;4.15;1.40;;;;;;;19.70;100.00;97570.31;1223950;75;2927182;-69
2023/07/13 05:33:22;;;;;;;3.15;2.05;;;;;;;19.79;100.00;97566.31;1223989;75;2926949;-66
2023/07/13 05:35:55;;;;;;;3.55;1.60;;;;;;;20.02;100.00;97565.81;1224805;75;2923127;-71
2023/07/13 05:38:27;;;;;;;1.80;1.50;;;;;;;20.13;100.00;97568.28;1224479;75;2922053;-69
2023/07/13 05:41:01;;;;;;;3.50;1.50;;;;;;;20.12;100.00;97558.47;1224488;75;2922646;-68
2023/07/13 05:43:36;;;;;;;2.70;1.40;;;;;;;20.10;100.00;97564.56;1224000;75;2919246;-68
2023/07/13 05:46:10;;;;;;;1.35;1.25;;;;;;;20.20;100.00;97564.81;1223722;75;2918841;-69
2023/07/13 05:48:42;;;;;;;1.95;1.30;;;;;;;20.53;100.00;97559.69;1223489;75;2927915;-67
2023/07/13 05:51:15;;;;;;;1.90;1.10;;;;;;;20.54;100.00;97561.94;1224076;75;2949662;-66
2023/07/13 05:53:47;;;;;;;2.45;1.00;;;;;;;20.73;100.00;97564.47;1223963;75;2922304;-68
2023/07/13 05:56:20;;;;;;;3.15;1.70;;;;;;;20.36;100.00;97572.00;1223677;75;2924358;-68
2023/07/13 05:58:55;;;;;;;3.00;1.50;;;;;;;20.29;100.00;97588.63;1223614;75;2923909;-67
2023/07/13 06:01:28;;;;;;;1.70;1.15;;;;;;;20.82;100.00;97579.91;1224733;75;2919315;-67
2023/07/13 06:04:00;;;;;;;1.60;1.20;;;;;;;20.76;100.00;97587.69;1224736;75;2926168;-69
2023/07/13 06:06:33;;;;;;;2.50;1.45;;;;;;;20.82;100.00;97591.03;1224375;75;2928528;-65
2023/07/13 06:09:06;;;;;;;2.05;1.45;;;;;;;20.79;100.00;97586.59;1224780;75;2921873;-70
2023/07/13 06:11:38;;;;;;;4.20;1.50;;;;;;;21.06;100.00;97582.25;1224634;75;2919070;-68
2023/07/13 06:14:13;;;;;;;2.50;1.30;;;;;;;20.99;100.00;97587.78;1224473;75;2923921;-71
2023/07/13 06:16:46;;;;;;;1.70;1.40;;;;;;;20.98;100.00;97589.84;1224436;75;2924602;-68
2023/07/13 06:19:19;;;;;;;1.30;1.00;;;;;;;21.28;100.00;97605.94;1224223;75;2920312;-67
2023/07/13 06:21:51;;;;;;;1.00;0.90;;;;;;;21.41;100.00;97612.72;1224016;75;2924116;-69
2023/07/13 06:24:24;;;;;;;0.80;0.80;;;;;;;21.25;100.00;97609.09;1224001;75;2927808;-69
2023/07/13 06:26:56;;;;;;;0.90;0.90;;;;;;;21.53;100.00;97604.75;1224388;75;2922237;-69
2023/07/13 06:29:31;;;;;;;1.90;1.00;;;;;;;21.41;100.00;97609.94;1224442;75;2922828;-66
2023/07/13 06:32:04;;;;;;;2.30;1.25;;;;;;;21.40;100.00;97608.41;1224654;75;2922134;-69
2023/07/13 06:34:37;;;;;;;1.90;1.20;;;;;;;21.60;100.00;97596.44;1223807;75;2930639;-68
2023/07/13 06:37:10;;;;;;;1.45;1.15;;;;;;;21.67;100.00;97598.50;1224501;75;2926982;-68
2023/07/13 06:39:42;;;;;;;2.45;1.30;;;;;;;21.82;100.00;97595.00;1224495;75;2919295;-68
2023/07/13 06:42:15;;;;;;;2.30;1.30;;;;;;;21.68;100.00;97583.25;1223783;75;2943397;-67
2023/07/13 06:44:50;;;;;;;1.85;1.05;;;;;;;21.74;100.00;97580.28;1223884;75;2928984;-68
2023/07/13 06:47:23;;;;;;;1.55;1.10;;;;;;;21.79;100.00;97584.19;1223348;75;2930565;-67
2023/07/13 06:49:55;;;;;;;1.45;1.10;;;;;;;22.10;100.00;97594.09;1223899;75;2927484;-71
2023/07/13 06:52:28;;;;;;;1.25;0.85;;;;;;;22.15;100.00;97602.81;1224029;75;2920982;-69
2023/07/13 06:55:00;;;;;;;2.40;1.35;;;;;;;22.25;100.00;97601.75;1223776;75;2928896;-66
2023/07/13 06:57:33;;;;;;;3.60;1.35;;;;;;;21.87;100.00;97610.78;1223759;75;2925457;-69
2023/07/13 07:00:10;;;;;;;1.40;1.00;;;;;;;22.43;100.00;97599.88;1223815;75;2936431;-69
2023/07/13 07:02:42;;;;;;;3.35;1.20;;;;;;;22.44;100.00;97604.19;1223450;75;2928348;-69
2023/07/13 07:05:15;;;;;;;2.00;1.30;;;;;;;22.66;100.00;97599.13;1224207;75;2922047;-70
2023/07/13 07:07:52;;;;;;;2.40;1.30;;;;;;;22.63;100.00;97612.13;1224630;75;2936513;-69
2023/07/13 07:10:25;;;;;;;1.70;1.00;;;;;;;22.69;100.00;97603.59;1224436;75;2929240;-69
2023/07/13 07:12:57;;;;;;;2.65;1.10;;;;;;;23.02;100.00;97603.72;1223225;75;2926963;-68
2023/07/13 07:15:33;;;;;;;2.05;1.05;;;;;;;23.21;97.11;97611.66;1224865;75;2922844;-66
2023/07/13 07:18:06;;;;;;;2.20;0.90;;;;;;;23.37;90.00;97615.88;1224770;75;2926005;-67
2023/07/13 07:20:39;;;;;;;3.50;1.00;;;;;;;23.57;86.36;97609.28;1224876;75;2922509;-71
2023/07/13 07:23:12;;;;;;;1.25;0.90;;;;;;;23.39;89.32;97610.47;1224645;75;2917872;-69
2023/07/13 07:25:47;;;;;;;2.80;1.05;;;;;;;23.17;87.60;97601.63;1224878;75;2911634;-67
2023/07/13 07:28:20;;;;;;;1.95;1.15;;;;;;;23.42;87.72;97600.22;1224645;75;2920386;-70
2023/07/13 07:30:58;;;;;;;1.30;0.80;;;;;;;23.82;86.41;97603.03;1222061;75;2975892;-68
2023/07/13 07:33:30;;;;;;;2.30;1.00;;;;;;;23.79;84.50;97602.09;1224361;75;2922285;-69
2023/07/13 07:36:03;;;;;;;2.80;1.00;;;;;;;23.86;81.63;97592.19;1223740;75;2924163;-69
2023/07/13 07:38:36;;;;;;;2.45;1.00;;;;;;;23.92;79.93;97589.91;1223790;75;2921093;-67
2023/07/13 07:41:09;;;;;;;3.40;0.75;;;;;;;24.09;72.37;97591.28;1223618;75;2925355;-68
2023/07/13 07:43:41;;;;;;;1.30;0.85;;;;;;;24.16;76.01;97594.03;1224038;75;2946240;-67
2023/07/13 07:46:16;;;;;;;1.80;1.00;;;;;;;24.39;71.67;97587.50;1221455;75;2927372;-67
2023/07/13 07:48:49;;;;;;;2.55;0.75;;;;;;;24.48;73.09;97572.16;1225518;75;2922816;-69
2023/07/13 07:51:21;;;;;;;3.00;1.10;;;;;;;24.63;74.69;97572.03;1223730;75;2931781;-68
2023/07/13 07:53:57;;;;;;;2.30;0.85;;;;;;;24.61;71.23;97569.06;1223523;75;2921954;-69
2023/07/13 07:56:29;;;;;;;1.60;0.70;;;;;;;24.97;71.19;97578.94;1224094;75;2926189;-71
2023/07/13 07:59:02;;;;;;;1.55;0.85;;;;;;;25.30;68.36;97593.50;1223874;75;2925595;-70
2023/07/13 08:01:37;;;;;;;1.75;0.35;;;;;;;25.27;64.54;97603.06;1221537;75;2952997;-69
2023/07/13 08:04:10;;;;;;;1.20;0.60;;;;;;;25.24;65.09;97607.78;1223068;75;2923881;-70
2023/07/13 08:06:42;;;;;;;0.90;0.40;;;;;;;25.63;64.81;97605.22;1222701;75;2926576;-68
2023/07/13 08:09:15;;;;;;;0.70;0.60;;;;;;;25.91;62.19;97601.13;1224583;75;2919946;-69
2023/07/13 08:11:47;;;;;;;1.15;0.65;;;;;;;26.04;63.67;97608.41;1224581;75;2923872;-67
2023/07/13 08:14:20;;;;;;;1.05;0.60;;;;;;;25.77;61.88;97600.00;1223898;75;2923202;-69
2023/07/13 08:16:55;;;;;;;0.95;0.60;;;;;;;25.68;60.04;97603.50;1223370;75;2925519;-70
2023/07/13 08:19:28;;;;;;;0.90;0.60;;;;;;;26.04;58.80;97594.38;1224084;75;2930273;-65
2023/07/13 08:22:00;;;;;;;1.30;0.70;;;;;;;26.18;57.83;97600.34;1223180;75;2928520;-69
2023/07/13 08:24:33;;;;;;;1.00;0.50;;;;;;;26.27;59.16;97594.03;1223154;75;2926820;-70
2023/07/13 08:27:06;;;;;;;1.30;0.70;;;;;;;25.70;59.13;97584.75;1223412;75;2937786;-66
2023/07/13 08:29:39;;;;;;;0.90;0.45;;;;;;;25.72;57.91;97581.38;1223878;75;2932108;-68
2023/07/13 08:32:14;;;;;;;1.15;0.50;;;;;;;26.43;61.09;97576.94;1224089;75;2937568;-69
2023/07/13 08:34:47;;;;;;;0.30;0.30;;;;;;;26.58;58.15;97579.53;1223310;75;2930568;-68
2023/07/13 08:37:20;;;;;;;1.30;0.40;;;;;;;26.33;59.85;97577.66;1223393;75;2929462;-67
2023/07/13 08:39:52;;;;;;;0.40;0.40;;;;;;;26.90;57.00;97591.66;1224264;75;2930078;-69
2023/07/13 08:42:40;;;;;;;0.50;0.40;;;;;;;27.28;57.48;97576.16;1224226;75;2925444;-67
2023/07/13 08:45:23;;;;;;;0.65;0.50;;;;;;;27.13;56.53;97568.72;1224353;75;2934001;-66
2023/07/13 08:48:04;;;;;;;0.50;0.30;;;;;;;27.64;59.10;97580.84;1223968;75;2921439;-66
2023/07/13 08:50:51;;;;;;;0.50;0.50;;;;;;;28.15;60.70;97587.19;1224049;75;2919764;-68
2023/07/13 08:53:26;;;;;;;0.60;0.50;;;;;;;27.75;58.88;97588.63;1224321;75;2920573;-68
2023/07/13 08:56:03;;;;;;;1.55;0.50;;;;;;;27.28;59.59;97578.97;1223934;75;2931933;-68
2023/07/13 08:58:36;;;;;;;0.65;0.40;;;;;;;28.00;58.83;97582.66;1223501;75;2918677;-68
2023/07/13 09:01:19;;;;;;;1.10;0.50;;;;;;;27.92;61.44;97573.63;1224017;75;2927363;-66
2023/07/13 09:04:04;;;;;;;0.85;0.60;;;;;;;27.73;62.94;97568.81;1224541;75;2931161;-68
2023/07/13 09:06:52;;;;;;;0.50;0.50;;;;;;;28.07;63.51;97554.91;1224349;75;2929997;-65
2023/07/13 09:09:35;;;;;;;;;;;;;;;28.13;61.75;97566.59;1225128;75;2917934;-68
2023/07/13 09:12:28;;;;;;;0.90;0.40;;;;;;;28.20;61.60;97555.16;1224292;75;2923237;-66
2023/07/13 09:15:04;;;;;;;1.20;0.70;;;;;;;28.39;59.91;97562.03;1224657;75;2926062;-69
2023/07/13 09:17:45;;;;;;;2.55;0.60;;;;;;;28.04;59.58;97573.75;1224307;75;2922534;-68
2023/07/13 09:20:29;;;;;;;1.15;0.60;;;;;;;28.59;58.76;97569.03;1223937;75;2918950;-66
2023/07/13 09:23:07;;;;;;;0.65;0.45;;;;;;;28.92;56.57;97570.44;1223719;75;2929126;-68
2023/07/13 09:25:40;;;;;;;;;;;;;;;29.21;55.74;97567.41;1225151;75;2926270;-68
2023/07/13 09:28:17;;;;;;;;;;;;;;;29.27;54.37;97576.97;1225480;83;2916910;-69
2023/07/13 09:30:57;;;;;;;0.20;0.20;;;;;;;29.82;53.61;97574.03;1224116;75;2923125;-69
2023/07/13 09:33:30;;;;;;;1.95;0.60;;;;;;;28.68;51.17;97581.56;1223714;75;2930697;-68
2023/07/13 09:36:20;;;;;;;0.65;0.50;;;;;;;29.09;51.89;97572.97;1223732;75;2933172;-69
2023/07/13 09:38:59;;;;;;;0.50;0.50;;;;;;;29.09;52.19;97575.81;1224134;75;2923983;-69
2023/07/13 09:41:44;;;;;;;0.50;0.40;;;;;;;29.66;52.58;97567.38;1223791;75;2929640;-67
2023/07/13 09:44:19;;;;;;;1.75;0.60;;;;;;;29.12;53.33;97568.94;1223556;75;2924331;-67
2023/07/13 09:46:58;;;;;;;0.95;0.55;;;;;;;29.07;54.74;97558.75;1224025;75;2923625;-67
2023/07/13 09:49:33;;;;;;;0.70;0.50;;;;;;;29.78;55.61;97567.41;1224384;75;2930419;-67
2023/07/13 09:52:17;;;;;;;1.65;0.80;;;;;;;29.56;53.78;97564.69;1224528;75;2921045;-67
2023/07/13 09:54:55;;;;;;;1.45;0.60;;;;;;;29.44;52.20;97575.16;1224098;75;2926764;-68
2023/07/13 09:57:29;;;;;;;0.60;0.50;;;;;;;29.50;50.69;97567.84;1224123;75;2922833;-69
2023/07/13 10:00:02;;;;;;;0.95;0.60;;;;;;;29.32;49.07;97577.97;1223942;75;2930672;-69
2023/07/13 10:02:37;;;;;;;0.80;0.40;;;;;;;29.88;49.30;97568.06;1224870;75;2921643;-67
2023/07/13 10:05:19;;;;;;;0.75;0.50;;;;;;;30.64;49.16;97567.63;1224363;75;2928453;-71
2023/07/13 10:07:54;;;;;;;0.50;0.50;;;;;;;30.79;48.97;97572.03;1224214;75;2924948;-71
2023/07/13 10:10:27;;;;;;;0.40;0.40;;;;;;;31.61;46.24;97568.16;1224180;75;2928810;-69
2023/07/13 10:12:59;;;;;;;0.45;0.25;;;;;;;31.37;46.87;97571.09;1224786;75;2923513;-70
2023/07/13 10:15:32;;;;;;;0.50;0.50;;;;;;;31.81;44.20;97562.84;1224409;75;2925673;-70
2023/07/13 10:18:05;;;;;;;0.40;0.40;;;;;;;31.43;44.58;97559.38;1223426;75;2919902;-70
2023/07/13 10:20:38;;;;;;;0.80;0.50;;;;;;;31.39;43.91;97561.97;1224406;75;2915904;-68
2023/07/13 10:23:24;;;;;;;0.50;0.50;;;;;;;31.39;43.16;97559.91;1224419;75;2922146;-70
2023/07/13 10:25:58;;;;;;;1.85;0.65;;;;;;;31.82;43.08;97541.66;1224218;67;2922811;-71
2023/07/13 10:28:38;;;;;;;0.70;0.50;;;;;;;31.75;41.49;97546.28;1224682;75;2924702;-68
2023/07/13 10:31:16;;;;;;;0.50;0.50;;;;;;;31.67;41.21;97545.09;1224160;75;2934188;-69
2023/07/13 10:33:49;;;;;;;0.50;0.50;;;;;;;31.93;42.51;97540.09;1221182;75;2927179;-70
2023/07/13 10:36:37;;;;;;;0.50;0.50;;;;;;;32.27;40.88;97546.84;1224716;75;2923413;-69
2023/07/13 10:39:22;;;;;;;2.40;0.80;;;;;;;31.32;43.21;97546.03;1223200;75;2934540;-68
2023/07/13 10:42:01;;;;;;;0.60;0.50;;;;;;;32.31;43.04;97547.06;1224499;75;2926196;-69
2023/07/13 10:44:36;;;;;;;1.60;0.55;;;;;;;32.24;41.89;97548.13;1224149;75;2927257;-70
2023/07/13 10:47:15;;;;;;;1.65;0.60;;;;;;;31.38;42.68;97552.75;1224222;75;2925938;-67
2023/07/13 10:49:48;;;;;;;0.95;0.60;;;;;;;31.83;41.43;97549.53;1223949;75;2924444;-69
2023/07/13 10:52:46;;;;;;;0.60;0.60;;;;;;;32.05;42.09;97557.75;1224373;75;2934054;-71
2023/07/13 10:55:39;;;;;;;0.60;0.60;;;;;;;32.00;40.38;97548.31;1223569;75;2926211;-69
2023/07/13 10:58:22;;;;;;;0.40;0.30;;;;;;;32.33;40.15;97552.84;1224680;75;2926735;-68
2023/07/13 11:01:05;;;;;;;1.10;0.40;;;;;;;32.79;39.36;97553.72;1224836;75;2918172;-69
2023/07/13 11:03:49;;;;;;;0.60;0.35;;;;;;;33.05;38.59;97553.56;1223785;75;2921167;-69
2023/07/13 11:06:39;;;;;;;0.40;0.25;;;;;;;32.37;40.44;97550.19;1224322;75;2922058;-68
2023/07/13 11:09:44;;;;;;;0.70;0.60;;;;;;;32.83;40.09;97533.34;1223998;75;2933477;-69
2023/07/13 11:12:57;;;;;;;1.00;0.50;;;;;;;32.29;40.79;97526.41;1223799;75;2923126;-67
2023/07/13 11:15:47;;;;;;;0.60;0.50;;;;;;;32.80;41.22;97526.09;1224323;75;2927358;-66
2023/07/13 11:18:27;;;;;;;0.60;0.60;;;;;;;33.37;39.26;97522.44;1224437;75;2926529;-69
2023/07/13 11:21:19;;;;;;;0.85;0.50;;;;;;;34.02;41.01;97531.09;1223331;75;2921646;-71
2023/07/13 11:24:04;;;;;;;0.75;0.45;;;;;;;33.44;39.10;97532.72;1224126;75;2927177;-69
2023/07/13 11:26:45;;;;;;;0.65;0.60;;;;;;;31.86;43.80;97538.31;1224624;75;2927444;-67
2023/07/13 11:29:41;;;;;;;0.85;0.50;;;;;;;32.60;41.90;97520.19;1224356;75;2919659;-71
2023/07/13 11:32:28;;;;;;;0.50;0.50;;;;;;;32.99;40.17;97507.88;1224971;75;2923365;-69
2023/07/13 11:35:01;;;;;;;1.20;0.70;;;;;;;31.98;43.51;97527.66;1224896;75;2926290;-69
2023/07/13 11:37:34;;;;;;;0.65;0.60;;;;;;;31.08;47.96;97525.63;1224394;75;2927616;-67
2023/07/13 11:40:08;;;;;;;2.15;0.85;;;;;;;30.69;49.17;97529.81;1224579;75;2919011;-70
2023/07/13 11:42:40;;;;;;;1.15;0.70;;;;;;;29.47;52.25;97523.94;1224329;75;2930090;-69
2023/07/13 11:45:26;;;;;;;2.50;0.80;;;;;;;29.79;52.41;97521.66;1224325;75;2898447;-68
2023/07/13 11:48:00;;;;;;;1.05;0.75;;;;;;;29.88;53.14;97529.28;1224059;75;2920306;-68
2023/07/13 11:50:33;;;;;;;0.90;0.60;;;;;;;29.66;54.76;97528.66;1224431;75;2922073;-68
2023/07/13 11:53:05;;;;;;;1.90;1.05;;;;;;;29.12;55.82;97551.31;1224259;75;2915508;-68